sensor_id;sensor_type;location;lat;lon;timestamp;P1;durP1;ratioP1;P2;durP2;ratioP2
12024;SDS011;6073;53.230;10.444;2024-02-21T00:01:24;23.67;;;10.93;;
12024;SDS011;6073;53.230;10.444;2024-02-21T00:03:50;26.80;;;10.93;;
12024;SDS011;6073;53.230;10.444;2024-02-21T00:06:15;22.73;;;10.95;;
12024;SDS011;6073;53.230;10.444;2024-02-21T00:08:41;28.98;;;12.88;;
12024;SDS011;6073;53.230;10.444;2024-02-21T00:11:06;24.60;;;10.93;;
12024;SDS011;6073;53.230;10.444;2024-02-21T00:13:32;30.88;;;12.02;;
12024;SDS011;6073;53.230;10.444;2024-02-21T00:15:59;23.45;;;10.40;;
12024;SDS011;6073;53.230;10.444;2024-02-21T00:18:25;23.15;;;12.05;;
12024;SDS011;6073;53.230;10.444;2024-02-21T00:20:51;22.05;;;11.00;;
12024;SDS011;6073;53.230;10.444;2024-02-21T00:23:17;23.35;;;10.77;;
12024;SDS011;6073;53.230;10.444;2024-02-21T00:25:42;20.10;;;10.45;;
12024;SDS011;6073;53.230;10.444;2024-02-21T00:28:08;28.38;;;11.45;;
12024;SDS011;6073;53.230;10.444;2024-02-21T00:30:33;22.48;;;9.93;;
12024;SDS011;6073;53.230;10.444;2024-02-21T00:32:59;28.20;;;10.82;;
12024;SDS011;6073;53.230;10.444;2024-02-21T00:35:24;24.00;;;10.80;;
12024;SDS011;6073;53.230;10.444;2024-02-21T00:37:50;18.67;;;10.15;;
12024;SDS011;6073;53.230;10.444;2024-02-21T00:40:16;20.63;;;11.07;;
12024;SDS011;6073;53.230;10.444;2024-02-21T00:42:45;19.77;;;10.52;;
12024;SDS011;6073;53.230;10.444;2024-02-21T00:45:11;22.45;;;10.85;;
12024;SDS011;6073;53.230;10.444;2024-02-21T00:47:36;21.55;;;10.57;;
12024;SDS011;6073;53.230;10.444;2024-02-21T00:50:02;24.63;;;11.18;;
12024;SDS011;6073;53.230;10.444;2024-02-21T00:52:27;17.75;;;10.00;;
12024;SDS011;6073;53.230;10.444;2024-02-21T00:54:53;21.23;;;9.23;;
12024;SDS011;6073;53.230;10.444;2024-02-21T00:57:18;25.20;;;11.13;;
12024;SDS011;6073;53.230;10.444;2024-02-21T00:59:44;20.98;;;10.60;;
12024;SDS011;6073;53.230;10.444;2024-02-21T01:02:10;22.13;;;11.13;;
12024;SDS011;6073;53.230;10.444;2024-02-21T01:04:35;22.05;;;10.77;;
12024;SDS011;6073;53.230;10.444;2024-02-21T01:07:01;27.65;;;11.80;;
12024;SDS011;6073;53.230;10.444;2024-02-21T01:09:29;21.00;;;9.75;;
12024;SDS011;6073;53.230;10.444;2024-02-21T01:11:55;19.38;;;9.85;;
12024;SDS011;6073;53.230;10.444;2024-02-21T01:14:20;16.88;;;8.75;;
12024;SDS011;6073;53.230;10.444;2024-02-21T01:16:46;26.17;;;11.30;;
12024;SDS011;6073;53.230;10.444;2024-02-21T01:19:11;16.17;;;10.52;;
12024;SDS011;6073;53.230;10.444;2024-02-21T01:21:37;19.38;;;9.90;;
12024;SDS011;6073;53.230;10.444;2024-02-21T01:24:02;21.42;;;11.40;;
12024;SDS011;6073;53.230;10.444;2024-02-21T01:26:28;24.25;;;10.07;;
12024;SDS011;6073;53.230;10.444;2024-02-21T01:28:54;22.33;;;10.60;;
12024;SDS011;6073;53.230;10.444;2024-02-21T01:31:19;21.90;;;10.43;;
12024;SDS011;6073;53.230;10.444;2024-02-21T01:33:48;21.63;;;10.95;;
12024;SDS011;6073;53.230;10.444;2024-02-21T01:36:13;21.05;;;11.07;;
12024;SDS011;6073;53.230;10.444;2024-02-21T01:38:39;18.23;;;11.00;;
12024;SDS011;6073;53.230;10.444;2024-02-21T01:41:04;23.23;;;10.90;;
12024;SDS011;6073;53.230;10.444;2024-02-21T01:43:30;17.00;;;10.10;;
12024;SDS011;6073;53.230;10.444;2024-02-21T01:45:55;23.35;;;11.57;;
12024;SDS011;6073;53.230;10.444;2024-02-21T01:48:22;29.30;;;11.32;;
12024;SDS011;6073;53.230;10.444;2024-02-21T01:50:48;23.50;;;12.02;;
12024;SDS011;6073;53.230;10.444;2024-02-21T01:53:16;27.98;;;12.45;;
12024;SDS011;6073;53.230;10.444;2024-02-21T01:55:45;27.77;;;12.23;;
12024;SDS011;6073;53.230;10.444;2024-02-21T01:58:12;19.80;;;11.52;;
12024;SDS011;6073;53.230;10.444;2024-02-21T02:00:42;22.00;;;11.68;;
12024;SDS011;6073;53.230;10.444;2024-02-21T02:03:11;24.38;;;12.02;;
12024;SDS011;6073;53.230;10.444;2024-02-21T02:05:47;21.10;;;11.77;;
12024;SDS011;6073;53.230;10.444;2024-02-21T02:08:17;20.10;;;11.70;;
12024;SDS011;6073;53.230;10.444;2024-02-21T02:10:44;24.50;;;12.60;;
12024;SDS011;6073;53.230;10.444;2024-02-21T02:13:10;26.10;;;13.95;;
12024;SDS011;6073;53.230;10.444;2024-02-21T02:15:46;18.75;;;10.98;;
12024;SDS011;6073;53.230;10.444;2024-02-21T02:18:13;21.63;;;12.05;;
12024;SDS011;6073;53.230;10.444;2024-02-21T02:20:39;22.23;;;12.27;;
12024;SDS011;6073;53.230;10.444;2024-02-21T02:23:07;24.77;;;12.52;;
12024;SDS011;6073;53.230;10.444;2024-02-21T02:25:38;21.60;;;11.70;;
12024;SDS011;6073;53.230;10.444;2024-02-21T02:28:05;24.92;;;11.68;;
12024;SDS011;6073;53.230;10.444;2024-02-21T02:30:32;20.90;;;11.88;;
12024;SDS011;6073;53.230;10.444;2024-02-21T02:32:59;26.20;;;12.95;;
12024;SDS011;6073;53.230;10.444;2024-02-21T02:35:24;28.17;;;13.00;;
12024;SDS011;6073;53.230;10.444;2024-02-21T02:37:50;23.02;;;12.25;;
12024;SDS011;6073;53.230;10.444;2024-02-21T02:40:15;24.63;;;12.45;;
12024;SDS011;6073;53.230;10.444;2024-02-21T02:42:41;24.65;;;13.10;;
12024;SDS011;6073;53.230;10.444;2024-02-21T02:45:07;24.15;;;11.20;;
12024;SDS011;6073;53.230;10.444;2024-02-21T02:47:33;22.75;;;12.13;;
12024;SDS011;6073;53.230;10.444;2024-02-21T02:49:59;27.85;;;12.73;;
12024;SDS011;6073;53.230;10.444;2024-02-21T02:52:25;21.67;;;11.50;;
12024;SDS011;6073;53.230;10.444;2024-02-21T02:54:50;21.83;;;11.55;;
12024;SDS011;6073;53.230;10.444;2024-02-21T02:57:17;26.13;;;12.25;;
12024;SDS011;6073;53.230;10.444;2024-02-21T02:59:52;23.95;;;12.98;;
12024;SDS011;6073;53.230;10.444;2024-02-21T03:02:17;23.88;;;11.13;;
12024;SDS011;6073;53.230;10.444;2024-02-21T03:04:43;25.27;;;11.93;;
12024;SDS011;6073;53.230;10.444;2024-02-21T03:07:09;24.33;;;12.32;;
12024;SDS011;6073;53.230;10.444;2024-02-21T03:09:36;25.48;;;12.80;;
12024;SDS011;6073;53.230;10.444;2024-02-21T03:12:02;28.23;;;13.73;;
12024;SDS011;6073;53.230;10.444;2024-02-21T03:14:28;25.38;;;13.15;;
12024;SDS011;6073;53.230;10.444;2024-02-21T03:16:54;23.88;;;12.68;;
12024;SDS011;6073;53.230;10.444;2024-02-21T03:19:20;24.92;;;12.32;;
12024;SDS011;6073;53.230;10.444;2024-02-21T03:21:46;33.85;;;13.35;;
12024;SDS011;6073;53.230;10.444;2024-02-21T03:24:12;24.38;;;13.23;;
12024;SDS011;6073;53.230;10.444;2024-02-21T03:26:37;28.70;;;14.50;;
12024;SDS011;6073;53.230;10.444;2024-02-21T03:29:03;25.75;;;13.35;;
12024;SDS011;6073;53.230;10.444;2024-02-21T03:31:29;31.38;;;13.73;;
12024;SDS011;6073;53.230;10.444;2024-02-21T03:33:54;28.83;;;13.80;;
12024;SDS011;6073;53.230;10.444;2024-02-21T03:36:20;23.85;;;12.30;;
12024;SDS011;6073;53.230;10.444;2024-02-21T03:38:45;25.60;;;12.93;;
12024;SDS011;6073;53.230;10.444;2024-02-21T03:41:11;25.70;;;13.45;;
12024;SDS011;6073;53.230;10.444;2024-02-21T03:43:37;25.67;;;12.65;;
12024;SDS011;6073;53.230;10.444;2024-02-21T03:46:04;29.10;;;13.13;;
12024;SDS011;6073;53.230;10.444;2024-02-21T03:48:29;25.63;;;12.35;;
12024;SDS011;6073;53.230;10.444;2024-02-21T03:50:55;25.13;;;12.32;;
12024;SDS011;6073;53.230;10.444;2024-02-21T03:53:20;25.40;;;13.05;;
12024;SDS011;6073;53.230;10.444;2024-02-21T03:55:46;26.25;;;12.90;;
12024;SDS011;6073;53.230;10.444;2024-02-21T03:58:12;24.40;;;11.80;;
12024;SDS011;6073;53.230;10.444;2024-02-21T04:00:37;22.60;;;11.77;;
12024;SDS011;6073;53.230;10.444;2024-02-21T04:03:04;22.83;;;11.85;;
12024;SDS011;6073;53.230;10.444;2024-02-21T04:05:29;18.35;;;11.32;;
12024;SDS011;6073;53.230;10.444;2024-02-21T04:07:55;20.52;;;11.30;;
12024;SDS011;6073;53.230;10.444;2024-02-21T04:10:20;24.95;;;11.20;;
12024;SDS011;6073;53.230;10.444;2024-02-21T04:12:46;25.52;;;10.93;;
12024;SDS011;6073;53.230;10.444;2024-02-21T04:15:12;25.15;;;14.32;;
12024;SDS011;6073;53.230;10.444;2024-02-21T04:17:37;22.35;;;11.13;;
12024;SDS011;6073;53.230;10.444;2024-02-21T04:20:04;19.85;;;11.68;;
12024;SDS011;6073;53.230;10.444;2024-02-21T04:22:31;21.00;;;10.70;;
12024;SDS011;6073;53.230;10.444;2024-02-21T04:24:59;22.10;;;11.85;;
12024;SDS011;6073;53.230;10.444;2024-02-21T04:27:25;27.45;;;12.43;;
12024;SDS011;6073;53.230;10.444;2024-02-21T04:29:50;29.83;;;14.68;;
12024;SDS011;6073;53.230;10.444;2024-02-21T04:32:16;24.95;;;11.77;;
12024;SDS011;6073;53.230;10.444;2024-02-21T04:34:41;23.27;;;11.73;;
12024;SDS011;6073;53.230;10.444;2024-02-21T04:37:07;21.75;;;11.23;;
12024;SDS011;6073;53.230;10.444;2024-02-21T04:39:32;20.23;;;12.25;;
12024;SDS011;6073;53.230;10.444;2024-02-21T04:41:58;22.25;;;11.50;;
12024;SDS011;6073;53.230;10.444;2024-02-21T04:44:23;22.55;;;11.13;;
12024;SDS011;6073;53.230;10.444;2024-02-21T04:46:49;22.08;;;11.85;;
12024;SDS011;6073;53.230;10.444;2024-02-21T04:49:14;23.58;;;12.38;;
12024;SDS011;6073;53.230;10.444;2024-02-21T04:51:43;20.13;;;11.35;;
12024;SDS011;6073;53.230;10.444;2024-02-21T04:54:08;25.92;;;11.88;;
12024;SDS011;6073;53.230;10.444;2024-02-21T04:56:34;23.08;;;12.85;;
12024;SDS011;6073;53.230;10.444;2024-02-21T04:59:00;24.17;;;12.27;;
12024;SDS011;6073;53.230;10.444;2024-02-21T05:01:25;25.90;;;11.98;;
12024;SDS011;6073;53.230;10.444;2024-02-21T05:03:51;21.10;;;11.57;;
12024;SDS011;6073;53.230;10.444;2024-02-21T05:06:16;17.90;;;10.60;;
12024;SDS011;6073;53.230;10.444;2024-02-21T05:08:42;21.33;;;12.02;;
12024;SDS011;6073;53.230;10.444;2024-02-21T05:11:07;20.48;;;11.60;;
12024;SDS011;6073;53.230;10.444;2024-02-21T05:13:33;23.02;;;12.07;;
12024;SDS011;6073;53.230;10.444;2024-02-21T05:15:58;24.35;;;11.43;;
12024;SDS011;6073;53.230;10.444;2024-02-21T05:18:26;23.50;;;12.20;;
12024;SDS011;6073;53.230;10.444;2024-02-21T05:20:52;22.33;;;10.73;;
12024;SDS011;6073;53.230;10.444;2024-02-21T05:23:18;19.42;;;11.00;;
12024;SDS011;6073;53.230;10.444;2024-02-21T05:25:43;23.05;;;12.38;;
12024;SDS011;6073;53.230;10.444;2024-02-21T05:28:09;20.27;;;11.18;;
12024;SDS011;6073;53.230;10.444;2024-02-21T05:30:35;20.88;;;11.55;;
12024;SDS011;6073;53.230;10.444;2024-02-21T05:33:04;21.23;;;11.07;;
12024;SDS011;6073;53.230;10.444;2024-02-21T05:35:33;19.83;;;10.95;;
12024;SDS011;6073;53.230;10.444;2024-02-21T05:37:59;22.55;;;12.13;;
12024;SDS011;6073;53.230;10.444;2024-02-21T05:40:25;21.92;;;11.50;;
12024;SDS011;6073;53.230;10.444;2024-02-21T05:42:50;19.95;;;11.77;;
12024;SDS011;6073;53.230;10.444;2024-02-21T05:45:17;17.75;;;10.20;;
12024;SDS011;6073;53.230;10.444;2024-02-21T05:47:43;21.25;;;12.43;;
12024;SDS011;6073;53.230;10.444;2024-02-21T05:50:09;19.92;;;10.57;;
12024;SDS011;6073;53.230;10.444;2024-02-21T05:52:35;20.65;;;10.18;;
12024;SDS011;6073;53.230;10.444;2024-02-21T05:55:00;24.23;;;10.77;;
12024;SDS011;6073;53.230;10.444;2024-02-21T05:57:26;15.40;;;9.30;;
12024;SDS011;6073;53.230;10.444;2024-02-21T05:59:52;17.25;;;9.93;;
12024;SDS011;6073;53.230;10.444;2024-02-21T06:02:17;16.90;;;9.65;;
12024;SDS011;6073;53.230;10.444;2024-02-21T06:04:43;18.42;;;9.90;;
12024;SDS011;6073;53.230;10.444;2024-02-21T06:07:09;15.07;;;10.27;;
12024;SDS011;6073;53.230;10.444;2024-02-21T06:09:35;17.55;;;10.32;;
12024;SDS011;6073;53.230;10.444;2024-02-21T06:12:00;16.83;;;10.13;;
12024;SDS011;6073;53.230;10.444;2024-02-21T06:14:26;17.17;;;9.57;;
12024;SDS011;6073;53.230;10.444;2024-02-21T06:16:52;16.20;;;9.70;;
12024;SDS011;6073;53.230;10.444;2024-02-21T06:19:17;16.55;;;9.88;;
12024;SDS011;6073;53.230;10.444;2024-02-21T06:21:43;18.17;;;9.70;;
12024;SDS011;6073;53.230;10.444;2024-02-21T06:24:08;18.58;;;9.90;;
12024;SDS011;6073;53.230;10.444;2024-02-21T06:26:34;19.17;;;8.70;;
12024;SDS011;6073;53.230;10.444;2024-02-21T06:28:59;17.10;;;9.00;;
12024;SDS011;6073;53.230;10.444;2024-02-21T06:31:26;17.30;;;8.20;;
12024;SDS011;6073;53.230;10.444;2024-02-21T06:33:52;16.60;;;9.15;;
12024;SDS011;6073;53.230;10.444;2024-02-21T06:36:18;15.05;;;9.18;;
12024;SDS011;6073;53.230;10.444;2024-02-21T06:38:43;15.18;;;8.32;;
12024;SDS011;6073;53.230;10.444;2024-02-21T06:41:18;17.38;;;8.95;;
12024;SDS011;6073;53.230;10.444;2024-02-21T06:43:45;17.23;;;8.93;;
12024;SDS011;6073;53.230;10.444;2024-02-21T06:46:11;15.18;;;8.77;;
12024;SDS011;6073;53.230;10.444;2024-02-21T06:48:36;14.13;;;7.80;;
12024;SDS011;6073;53.230;10.444;2024-02-21T06:51:03;16.90;;;8.50;;
12024;SDS011;6073;53.230;10.444;2024-02-21T06:53:29;13.35;;;7.80;;
12024;SDS011;6073;53.230;10.444;2024-02-21T06:55:54;13.68;;;7.78;;
12024;SDS011;6073;53.230;10.444;2024-02-21T06:58:20;16.25;;;7.88;;
12024;SDS011;6073;53.230;10.444;2024-02-21T07:00:45;17.63;;;8.00;;
12024;SDS011;6073;53.230;10.444;2024-02-21T07:03:11;16.33;;;7.60;;
12024;SDS011;6073;53.230;10.444;2024-02-21T07:05:36;15.35;;;8.00;;
12024;SDS011;6073;53.230;10.444;2024-02-21T07:08:02;13.45;;;7.75;;
12024;SDS011;6073;53.230;10.444;2024-02-21T07:10:28;12.25;;;7.88;;
12024;SDS011;6073;53.230;10.444;2024-02-21T07:12:54;13.63;;;7.95;;
12024;SDS011;6073;53.230;10.444;2024-02-21T07:15:20;12.63;;;6.40;;
12024;SDS011;6073;53.230;10.444;2024-02-21T07:17:45;13.43;;;7.47;;
12024;SDS011;6073;53.230;10.444;2024-02-21T07:20:11;12.10;;;6.93;;
12024;SDS011;6073;53.230;10.444;2024-02-21T07:22:36;11.70;;;7.40;;
12024;SDS011;6073;53.230;10.444;2024-02-21T07:25:02;12.00;;;6.90;;
12024;SDS011;6073;53.230;10.444;2024-02-21T07:27:28;10.63;;;6.55;;
12024;SDS011;6073;53.230;10.444;2024-02-21T07:29:56;10.48;;;5.85;;
12024;SDS011;6073;53.230;10.444;2024-02-21T07:32:22;12.60;;;6.85;;
12024;SDS011;6073;53.230;10.444;2024-02-21T07:34:47;12.77;;;6.60;;
12024;SDS011;6073;53.230;10.444;2024-02-21T07:37:13;13.25;;;6.22;;
12024;SDS011;6073;53.230;10.444;2024-02-21T07:39:39;11.68;;;6.13;;
12024;SDS011;6073;53.230;10.444;2024-02-21T07:42:04;9.68;;;5.85;;
12024;SDS011;6073;53.230;10.444;2024-02-21T07:44:31;11.45;;;6.05;;
12024;SDS011;6073;53.230;10.444;2024-02-21T07:46:57;12.50;;;6.35;;
12024;SDS011;6073;53.230;10.444;2024-02-21T07:49:23;11.50;;;5.60;;
12024;SDS011;6073;53.230;10.444;2024-02-21T07:51:49;9.07;;;6.25;;
12024;SDS011;6073;53.230;10.444;2024-02-21T07:54:15;9.52;;;5.63;;
12024;SDS011;6073;53.230;10.444;2024-02-21T07:56:40;11.20;;;5.90;;
12024;SDS011;6073;53.230;10.444;2024-02-21T07:59:06;10.68;;;5.82;;
12024;SDS011;6073;53.230;10.444;2024-02-21T08:01:32;7.68;;;5.65;;
12024;SDS011;6073;53.230;10.444;2024-02-21T08:03:58;7.90;;;5.20;;
12024;SDS011;6073;53.230;10.444;2024-02-21T08:06:24;10.23;;;5.70;;
12024;SDS011;6073;53.230;10.444;2024-02-21T08:08:50;9.35;;;5.50;;
12024;SDS011;6073;53.230;10.444;2024-02-21T08:11:15;8.45;;;5.45;;
12024;SDS011;6073;53.230;10.444;2024-02-21T08:13:41;8.98;;;5.55;;
12024;SDS011;6073;53.230;10.444;2024-02-21T08:16:06;6.93;;;5.28;;
12024;SDS011;6073;53.230;10.444;2024-02-21T08:18:32;12.48;;;6.18;;
12024;SDS011;6073;53.230;10.444;2024-02-21T08:21:01;10.38;;;5.25;;
12024;SDS011;6073;53.230;10.444;2024-02-21T08:23:28;9.60;;;5.65;;
12024;SDS011;6073;53.230;10.444;2024-02-21T08:25:53;7.05;;;5.03;;
12024;SDS011;6073;53.230;10.444;2024-02-21T08:28:19;9.95;;;6.03;;
12024;SDS011;6073;53.230;10.444;2024-02-21T08:30:45;10.55;;;6.25;;
12024;SDS011;6073;53.230;10.444;2024-02-21T08:33:13;10.13;;;5.60;;
12024;SDS011;6073;53.230;10.444;2024-02-21T08:35:40;8.63;;;5.22;;
12024;SDS011;6073;53.230;10.444;2024-02-21T08:38:05;9.80;;;5.45;;
12024;SDS011;6073;53.230;10.444;2024-02-21T08:40:31;10.30;;;5.50;;
12024;SDS011;6073;53.230;10.444;2024-02-21T08:42:56;11.80;;;5.78;;
12024;SDS011;6073;53.230;10.444;2024-02-21T08:45:22;11.18;;;5.38;;
12024;SDS011;6073;53.230;10.444;2024-02-21T08:47:48;9.77;;;5.13;;
12024;SDS011;6073;53.230;10.444;2024-02-21T08:50:13;7.88;;;5.55;;
12024;SDS011;6073;53.230;10.444;2024-02-21T08:52:39;10.02;;;5.90;;
12024;SDS011;6073;53.230;10.444;2024-02-21T08:55:04;8.48;;;5.53;;
12024;SDS011;6073;53.230;10.444;2024-02-21T08:57:31;8.10;;;5.53;;
12024;SDS011;6073;53.230;10.444;2024-02-21T09:00:02;10.38;;;5.50;;
12024;SDS011;6073;53.230;10.444;2024-02-21T09:02:41;8.90;;;5.32;;
12024;SDS011;6073;53.230;10.444;2024-02-21T09:05:09;6.32;;;4.65;;
12024;SDS011;6073;53.230;10.444;2024-02-21T09:07:35;5.18;;;4.53;;
12024;SDS011;6073;53.230;10.444;2024-02-21T09:10:01;6.70;;;4.28;;
12024;SDS011;6073;53.230;10.444;2024-02-21T09:12:27;8.95;;;5.18;;
12024;SDS011;6073;53.230;10.444;2024-02-21T09:14:53;8.38;;;4.68;;
12024;SDS011;6073;53.230;10.444;2024-02-21T09:17:18;7.90;;;4.45;;
12024;SDS011;6073;53.230;10.444;2024-02-21T09:19:45;6.70;;;4.85;;
12024;SDS011;6073;53.230;10.444;2024-02-21T09:22:12;8.23;;;4.78;;
12024;SDS011;6073;53.230;10.444;2024-02-21T09:24:37;8.48;;;5.03;;
12024;SDS011;6073;53.230;10.444;2024-02-21T09:27:03;7.20;;;5.07;;
12024;SDS011;6073;53.230;10.444;2024-02-21T09:29:29;7.70;;;4.75;;
12024;SDS011;6073;53.230;10.444;2024-02-21T09:31:54;6.55;;;4.60;;
12024;SDS011;6073;53.230;10.444;2024-02-21T09:34:20;8.25;;;5.32;;
12024;SDS011;6073;53.230;10.444;2024-02-21T09:36:46;8.73;;;4.43;;
12024;SDS011;6073;53.230;10.444;2024-02-21T09:39:12;6.60;;;4.38;;
12024;SDS011;6073;53.230;10.444;2024-02-21T09:41:40;6.10;;;4.35;;
12024;SDS011;6073;53.230;10.444;2024-02-21T09:44:13;7.43;;;5.15;;
12024;SDS011;6073;53.230;10.444;2024-02-21T09:46:47;7.38;;;4.82;;
12024;SDS011;6073;53.230;10.444;2024-02-21T09:49:31;7.47;;;5.35;;
12024;SDS011;6073;53.230;10.444;2024-02-21T09:52:06;6.82;;;5.35;;
12024;SDS011;6073;53.230;10.444;2024-02-21T09:54:32;11.75;;;7.80;;
12024;SDS011;6073;53.230;10.444;2024-02-21T09:56:59;10.10;;;6.88;;
12024;SDS011;6073;53.230;10.444;2024-02-21T09:59:26;12.48;;;7.97;;
12024;SDS011;6073;53.230;10.444;2024-02-21T10:01:53;12.13;;;7.40;;
12024;SDS011;6073;53.230;10.444;2024-02-21T10:04:20;13.30;;;8.07;;
12024;SDS011;6073;53.230;10.444;2024-02-21T10:06:45;13.38;;;8.10;;
12024;SDS011;6073;53.230;10.444;2024-02-21T10:09:24;13.50;;;8.18;;
12024;SDS011;6073;53.230;10.444;2024-02-21T10:11:53;14.68;;;8.98;;
12024;SDS011;6073;53.230;10.444;2024-02-21T10:14:19;16.70;;;9.65;;
12024;SDS011;6073;53.230;10.444;2024-02-21T10:16:48;18.02;;;9.55;;
12024;SDS011;6073;53.230;10.444;2024-02-21T10:19:23;17.05;;;9.02;;
12024;SDS011;6073;53.230;10.444;2024-02-21T10:22:01;14.55;;;8.95;;
12024;SDS011;6073;53.230;10.444;2024-02-21T10:24:32;18.67;;;8.93;;
12024;SDS011;6073;53.230;10.444;2024-02-21T10:27:05;13.88;;;9.75;;
12024;SDS011;6073;53.230;10.444;2024-02-21T10:29:35;17.17;;;9.93;;
12024;SDS011;6073;53.230;10.444;2024-02-21T10:32:08;14.07;;;9.20;;
12024;SDS011;6073;53.230;10.444;2024-02-21T10:34:35;18.77;;;10.85;;
12024;SDS011;6073;53.230;10.444;2024-02-21T10:39:28;14.00;;;9.02;;
12024;SDS011;6073;53.230;10.444;2024-02-21T10:41:55;14.90;;;9.18;;
12024;SDS011;6073;53.230;10.444;2024-02-21T10:44:27;17.40;;;8.40;;
12024;SDS011;6073;53.230;10.444;2024-02-21T10:46:55;16.63;;;9.18;;
12024;SDS011;6073;53.230;10.444;2024-02-21T10:49:22;14.35;;;8.77;;
12024;SDS011;6073;53.230;10.444;2024-02-21T10:52:13;14.63;;;7.32;;
12024;SDS011;6073;53.230;10.444;2024-02-21T10:54:44;12.05;;;7.53;;
12024;SDS011;6073;53.230;10.444;2024-02-21T10:57:12;14.40;;;7.22;;
12024;SDS011;6073;53.230;10.444;2024-02-21T10:59:39;14.75;;;7.60;;
12024;SDS011;6073;53.230;10.444;2024-02-21T11:02:06;14.57;;;7.43;;
12024;SDS011;6073;53.230;10.444;2024-02-21T11:04:32;11.90;;;6.32;;
12024;SDS011;6073;53.230;10.444;2024-02-21T11:07:03;14.32;;;6.78;;
12024;SDS011;6073;53.230;10.444;2024-02-21T11:09:30;12.90;;;6.65;;
12024;SDS011;6073;53.230;10.444;2024-02-21T11:12:02;11.05;;;6.60;;
12024;SDS011;6073;53.230;10.444;2024-02-21T11:14:29;13.45;;;6.65;;
12024;SDS011;6073;53.230;10.444;2024-02-21T11:16:57;10.90;;;7.15;;
12024;SDS011;6073;53.230;10.444;2024-02-21T11:19:26;13.15;;;7.53;;
12024;SDS011;6073;53.230;10.444;2024-02-21T11:21:54;11.15;;;5.88;;
12024;SDS011;6073;53.230;10.444;2024-02-21T11:24:27;10.60;;;5.53;;
12024;SDS011;6073;53.230;10.444;2024-02-21T11:27:07;10.68;;;6.88;;
12024;SDS011;6073;53.230;10.444;2024-02-21T11:29:55;10.40;;;6.20;;
12024;SDS011;6073;53.230;10.444;2024-02-21T11:32:22;10.43;;;8.23;;
12024;SDS011;6073;53.230;10.444;2024-02-21T11:34:54;13.27;;;7.38;;
12024;SDS011;6073;53.230;10.444;2024-02-21T11:37:20;10.48;;;6.57;;
12024;SDS011;6073;53.230;10.444;2024-02-21T11:39:49;10.80;;;7.07;;
12024;SDS011;6073;53.230;10.444;2024-02-21T11:42:15;14.32;;;7.93;;
12024;SDS011;6073;53.230;10.444;2024-02-21T11:44:40;13.02;;;7.63;;
12024;SDS011;6073;53.230;10.444;2024-02-21T11:47:07;16.60;;;8.07;;
12024;SDS011;6073;53.230;10.444;2024-02-21T11:49:43;13.35;;;8.52;;
12024;SDS011;6073;53.230;10.444;2024-02-21T11:52:11;12.20;;;8.55;;
12024;SDS011;6073;53.230;10.444;2024-02-21T11:54:37;12.88;;;7.93;;
12024;SDS011;6073;53.230;10.444;2024-02-21T11:57:02;17.27;;;9.65;;
12024;SDS011;6073;53.230;10.444;2024-02-21T11:59:32;18.02;;;10.48;;
12024;SDS011;6073;53.230;10.444;2024-02-21T12:02:01;14.52;;;9.63;;
12024;SDS011;6073;53.230;10.444;2024-02-21T12:04:29;15.57;;;8.60;;
12024;SDS011;6073;53.230;10.444;2024-02-21T12:06:56;17.10;;;9.25;;
12024;SDS011;6073;53.230;10.444;2024-02-21T12:09:23;16.13;;;9.30;;
12024;SDS011;6073;53.230;10.444;2024-02-21T12:11:59;18.88;;;10.50;;
12024;SDS011;6073;53.230;10.444;2024-02-21T12:14:26;15.05;;;9.32;;
12024;SDS011;6073;53.230;10.444;2024-02-21T12:16:53;15.35;;;9.90;;
12024;SDS011;6073;53.230;10.444;2024-02-21T12:19:19;15.38;;;9.95;;
12024;SDS011;6073;53.230;10.444;2024-02-21T12:21:45;16.80;;;9.80;;
12024;SDS011;6073;53.230;10.444;2024-02-21T12:24:16;14.07;;;9.55;;
12024;SDS011;6073;53.230;10.444;2024-02-21T12:26:42;12.63;;;8.75;;
12024;SDS011;6073;53.230;10.444;2024-02-21T12:29:08;16.48;;;9.38;;
12024;SDS011;6073;53.230;10.444;2024-02-21T12:31:39;16.08;;;9.73;;
12024;SDS011;6073;53.230;10.444;2024-02-21T12:34:05;14.38;;;9.25;;
12024;SDS011;6073;53.230;10.444;2024-02-21T12:36:31;14.70;;;8.70;;
12024;SDS011;6073;53.230;10.444;2024-02-21T12:38:57;16.27;;;8.80;;
12024;SDS011;6073;53.230;10.444;2024-02-21T12:41:23;12.00;;;8.20;;
12024;SDS011;6073;53.230;10.444;2024-02-21T12:43:50;16.95;;;8.27;;
12024;SDS011;6073;53.230;10.444;2024-02-21T12:46:16;12.07;;;8.05;;
12024;SDS011;6073;53.230;10.444;2024-02-21T12:48:41;13.30;;;8.02;;
12024;SDS011;6073;53.230;10.444;2024-02-21T12:51:07;14.50;;;7.55;;
12024;SDS011;6073;53.230;10.444;2024-02-21T12:53:33;9.95;;;7.68;;
12024;SDS011;6073;53.230;10.444;2024-02-21T12:55:59;15.70;;;7.32;;
12024;SDS011;6073;53.230;10.444;2024-02-21T12:58:24;8.73;;;7.13;;
12024;SDS011;6073;53.230;10.444;2024-02-21T13:00:50;10.88;;;6.95;;
12024;SDS011;6073;53.230;10.444;2024-02-21T13:03:16;14.07;;;6.75;;
12024;SDS011;6073;53.230;10.444;2024-02-21T13:05:41;11.93;;;7.68;;
12024;SDS011;6073;53.230;10.444;2024-02-21T13:08:07;13.55;;;7.00;;
12024;SDS011;6073;53.230;10.444;2024-02-21T13:10:33;12.20;;;6.07;;
12024;SDS011;6073;53.230;10.444;2024-02-21T13:13:00;12.80;;;7.30;;
12024;SDS011;6073;53.230;10.444;2024-02-21T13:15:26;8.43;;;6.25;;
12024;SDS011;6073;53.230;10.444;2024-02-21T13:17:53;11.40;;;5.13;;
12024;SDS011;6073;53.230;10.444;2024-02-21T13:20:19;10.20;;;5.75;;
12024;SDS011;6073;53.230;10.444;2024-02-21T13:22:45;7.75;;;5.78;;
12024;SDS011;6073;53.230;10.444;2024-02-21T13:25:10;10.45;;;5.88;;
12024;SDS011;6073;53.230;10.444;2024-02-21T13:27:40;11.75;;;6.18;;
12024;SDS011;6073;53.230;10.444;2024-02-21T13:30:06;10.57;;;5.47;;
12024;SDS011;6073;53.230;10.444;2024-02-21T13:32:33;7.35;;;5.10;;
12024;SDS011;6073;53.230;10.444;2024-02-21T13:34:59;7.75;;;5.18;;
12024;SDS011;6073;53.230;10.444;2024-02-21T13:37:26;10.60;;;5.25;;
12024;SDS011;6073;53.230;10.444;2024-02-21T13:39:52;7.22;;;4.85;;
12024;SDS011;6073;53.230;10.444;2024-02-21T13:42:18;7.93;;;4.85;;
12024;SDS011;6073;53.230;10.444;2024-02-21T13:44:44;8.50;;;4.60;;
12024;SDS011;6073;53.230;10.444;2024-02-21T13:47:10;8.68;;;4.40;;
12024;SDS011;6073;53.230;10.444;2024-02-21T13:49:40;12.15;;;5.75;;
12024;SDS011;6073;53.230;10.444;2024-02-21T13:52:06;7.70;;;4.40;;
12024;SDS011;6073;53.230;10.444;2024-02-21T13:54:31;10.18;;;4.25;;
12024;SDS011;6073;53.230;10.444;2024-02-21T13:56:57;6.82;;;3.85;;
12024;SDS011;6073;53.230;10.444;2024-02-21T13:59:22;8.65;;;4.97;;
12024;SDS011;6073;53.230;10.444;2024-02-21T14:01:48;9.82;;;4.38;;
12024;SDS011;6073;53.230;10.444;2024-02-21T14:04:13;8.27;;;3.58;;
12024;SDS011;6073;53.230;10.444;2024-02-21T14:06:39;8.77;;;4.00;;
12024;SDS011;6073;53.230;10.444;2024-02-21T14:09:11;5.80;;;3.72;;
12024;SDS011;6073;53.230;10.444;2024-02-21T14:11:37;7.97;;;4.63;;
12024;SDS011;6073;53.230;10.444;2024-02-21T14:14:04;6.90;;;3.13;;
12024;SDS011;6073;53.230;10.444;2024-02-21T14:16:29;5.93;;;3.72;;
12024;SDS011;6073;53.230;10.444;2024-02-21T14:18:55;6.45;;;3.22;;
12024;SDS011;6073;53.230;10.444;2024-02-21T14:21:21;3.90;;;3.25;;
12024;SDS011;6073;53.230;10.444;2024-02-21T14:23:46;7.25;;;3.42;;
12024;SDS011;6073;53.230;10.444;2024-02-21T14:26:12;5.93;;;3.88;;
12024;SDS011;6073;53.230;10.444;2024-02-21T14:28:39;6.22;;;3.10;;
12024;SDS011;6073;53.230;10.444;2024-02-21T14:31:05;6.53;;;2.65;;